Time;durP1;ratioP1;P1;durP2;ratioP2;P2;SDS_P1;SDS_P2;PMS_P1;PMS_P2;Temp;Humidity;BMP_temperature;BMP_pressure;BME280_temperature;BME280_humidity;BME280_pressure;Samples;Min_cycle;Max_cycle;Signal;HPM_P1;HPM_P2
2023/09/30 00:02:16;;;;;;;;;;;;;;;28.35;37.59;100845.88;5077180;28;1046;-23
2023/09/30 00:04:42;;;;;;;;;;;;;;;28.31;37.85;100848.09;5077558;28;1094;-23
2023/09/30 00:07:07;;;;;;;;;;;;;;;28.07;38.36;100850.09;5077532;28;1066;-23
2023/09/30 00:09:33;;;;;;;;;;;;;;;28.30;37.80;100838.31;5077472;28;1964;-22
2023/09/30 00:11:59;;;;;;;;;;;;;;;28.20;38.20;100843.16;5077838;28;1062;-23
2023/09/30 00:14:25;;;;;;;;;;;;;;;28.28;37.91;100839.53;5076246;28;1141;-22
2023/09/30 00:16:50;;;;;;;;;;;;;;;28.16;38.33;100842.69;5077451;28;1163;-23
2023/09/30 00:19:16;;;;;;;;;;;;;;;28.22;38.13;100833.00;5077735;28;1055;-23
2023/09/30 00:21:41;;;;;;;;;;;;;;;28.24;38.07;100837.19;5077604;28;1246;-23
2023/09/30 00:24:07;;;;;;;;;;;;;;;28.26;37.89;100841.59;5076876;28;1105;-23
2023/09/30 00:26:32;;;;;;;;;;;;;;;28.27;37.81;100844.09;5077230;28;1155;-23
2023/09/30 00:28:58;;;;;;;;;;;;;;;28.33;37.80;100842.53;5077402;28;1919;-23
2023/09/30 00:31:23;;;;;;;;;;;;;;;28.32;37.87;100836.25;5059197;28;1216;-22
2023/09/30 00:33:49;;;;;;;;;;;;;;;28.30;37.87;100840.16;5077470;28;1090;-23
2023/09/30 00:36:14;;;;;;;;;;;;;;;28.37;37.85;100846.53;5077378;28;1108;-23
2023/09/30 00:38:40;;;;;;;;;;;;;;;28.37;37.88;100843.84;5076760;28;1118;-22
2023/09/30 00:41:06;;;;;;;;;;;;;;;28.39;37.65;100840.94;5077073;28;1095;-23
2023/09/30 00:43:32;;;;;;;;;;;;;;;28.33;38.00;100840.66;5076848;28;1131;-22
2023/09/30 00:46:06;;;;;;;;;;;;;;;28.39;37.81;100840.94;5058663;28;1330;-23
2023/09/30 00:48:33;;;;;;;;;;;;;;;28.32;37.88;100851.66;5039475;28;1272;-23
2023/09/30 00:50:59;;;;;;;;;;;;;;;28.27;37.89;100841.41;5073293;28;1894;-23
2023/09/30 00:53:25;;;;;;;;;;;;;;;28.34;37.72;100847.75;5076854;28;1116;-23
2023/09/30 00:55:51;;;;;;;;;;;;;;;28.36;37.83;100847.59;5076804;28;1079;-23
2023/09/30 00:58:16;;;;;;;;;;;;;;;28.30;37.87;100842.88;5059010;28;1091;-23
2023/09/30 01:00:42;;;;;;;;;;;;;;;28.30;37.73;100851.00;5076368;28;1140;-23
2023/09/30 01:03:08;;;;;;;;;;;;;;;28.22;37.64;100844.69;5076714;28;1135;-23
2023/09/30 01:05:33;;;;;;;;;;;;;;;28.27;37.90;100846.81;5076322;28;1062;-23
2023/09/30 01:08:01;;;;;;;;;;;;;;;28.26;37.90;100847.81;5058829;28;1143;-23
2023/09/30 01:10:27;;;;;;;;;;;;;;;28.31;37.74;100847.28;5077235;28;1967;-23
2023/09/30 01:12:52;;;;;;;;;;;;;;;28.25;37.88;100848.84;5076848;28;1032;-22
2023/09/30 01:15:18;;;;;;;;;;;;;;;28.34;37.59;100849.63;5075636;28;1149;-23
2023/09/30 01:17:43;;;;;;;;;;;;;;;28.31;37.57;100844.56;5076421;28;1015;-23
2023/09/30 01:20:16;;;;;;;;;;;;;;;28.33;37.33;100850.63;5076767;28;999;-23
2023/09/30 01:22:45;;;;;;;;;;;;;;;28.30;37.61;100856.41;5059929;28;1059;-23
2023/09/30 01:25:11;;;;;;;;;;;;;;;28.30;37.45;100853.69;5076499;28;1117;-23
2023/09/30 01:27:36;;;;;;;;;;;;;;;28.40;37.49;100856.13;5075731;28;877;-23
2023/09/30 01:30:02;;;;;;;;;;;;;;;28.40;36.92;100856.97;5076335;28;1902;-22
2023/09/30 01:32:28;;;;;;;;;;;;;;;28.47;36.92;100859.78;5058258;28;1062;-22
2023/09/30 01:34:53;;;;;;;;;;;;;;;28.53;36.78;100860.91;5058331;28;1238;-22
2023/09/30 01:37:19;;;;;;;;;;;;;;;28.52;36.99;100860.03;5076164;28;1146;-22
2023/09/30 01:39:45;;;;;;;;;;;;;;;28.41;36.95;100857.84;5058260;28;1239;-23
2023/09/30 01:42:11;;;;;;;;;;;;;;;28.35;36.77;100851.28;5058236;28;1071;-23
2023/09/30 01:44:36;;;;;;;;;;;;;;;28.46;36.87;100856.22;5075788;28;1186;-23
2023/09/30 01:47:02;;;;;;;;;;;;;;;28.42;36.98;100848.69;5058059;28;1222;-23
2023/09/30 01:49:27;;;;;;;;;;;;;;;28.51;36.79;100857.53;5076001;28;1985;-23
2023/09/30 01:51:54;;;;;;;;;;;;;;;28.60;36.63;100857.22;5075930;28;918;-23
2023/09/30 01:54:20;;;;;;;;;;;;;;;28.58;36.83;100855.72;5076371;28;1066;-23
2023/09/30 01:56:45;;;;;;;;;;;;;;;28.41;36.82;100853.25;5057833;28;1179;-23
2023/09/30 01:59:11;;;;;;;;;;;;;;;28.48;37.01;100862.28;5057756;28;1309;-22
2023/09/30 02:01:36;;;;;;;;;;;;;;;28.46;36.72;100858.91;5058502;28;1259;-22
2023/09/30 02:04:02;;;;;;;;;;;;;;;28.46;36.56;100850.00;5075741;28;1143;-22
2023/09/30 02:06:28;;;;;;;;;;;;;;;28.58;36.26;100856.56;5075965;28;1123;-23
2023/09/30 02:08:53;;;;;;;;;;;;;;;28.36;36.96;100861.94;5076256;28;1067;-22
2023/09/30 02:11:19;;;;;;;;;;;;;;;28.33;36.71;100856.06;5076090;28;1973;-23
2023/09/30 02:13:44;;;;;;;;;;;;;;;28.34;37.09;100852.34;5076192;28;1119;-22
2023/09/30 02:16:16;;;;;;;;;;;;;;;28.26;36.99;100858.63;5075966;28;947;-23
2023/09/30 02:18:42;;;;;;;;;;;;;;;28.39;37.26;100860.72;5075540;28;1145;-22
2023/09/30 02:21:11;;;;;;;;;;;;;;;28.33;36.97;100858.75;5057807;28;1132;-23
2023/09/30 02:23:36;;;;;;;;;;;;;;;28.43;36.79;100858.47;5075850;28;1075;-22
2023/09/30 02:26:02;;;;;;;;;;;;;;;28.30;37.44;100857.25;5075960;28;1071;-22
2023/09/30 02:28:28;;;;;;;;;;;;;;;28.36;37.26;100851.09;5075647;28;1118;-22
2023/09/30 02:30:54;;;;;;;;;;;;;;;28.31;37.21;100852.69;5057555;28;1902;-22
2023/09/30 02:33:19;;;;;;;;;;;;;;;28.31;37.46;100853.50;5075872;28;1130;-22
2023/09/30 02:35:48;;;;;;;;;;;;;;;28.28;37.27;100853.06;5075875;28;1202;-22
2023/09/30 02:38:16;;;;;;;;;;;;;;;28.21;37.41;100850.28;5077834;28;1199;-22
2023/09/30 02:40:45;;;;;;;;;;;;;;;28.46;36.96;100848.09;5079508;28;942;-22
2023/09/30 02:43:10;;;;;;;;;;;;;;;28.34;37.15;100849.63;5079355;28;1044;-22
2023/09/30 02:45:36;;;;;;;;;;;;;;;28.38;37.10;100845.50;5079048;28;1048;-22
2023/09/30 02:48:01;;;;;;;;;;;;;;;28.38;36.99;100848.22;5079686;28;1151;-22
2023/09/30 02:50:27;;;;;;;;;;;;;;;28.23;37.24;100849.03;5060938;28;1977;-22
2023/09/30 02:52:52;;;;;;;;;;;;;;;28.39;36.77;100843.66;5079143;28;1151;-22
2023/09/30 02:55:18;;;;;;;;;;;;;;;28.33;36.81;100850.63;5079317;28;1051;-22
2023/09/30 02:57:43;;;;;;;;;;;;;;;28.35;36.67;100845.88;5060925;28;1170;-22
2023/09/30 03:00:26;;;;;;;;;;;;;;;28.40;36.72;100846.16;5078514;28;1236;-22
2023/09/30 03:02:52;;;;;;;;;;;;;;;28.38;36.60;100852.81;5061370;28;1204;-22
2023/09/30 03:05:17;;;;;;;;;;;;;;;28.40;36.75;100846.16;5078286;28;1067;-22
2023/09/30 03:07:43;;;;;;;;;;;;;;;28.38;36.59;100847.41;5079313;28;1136;-22
2023/09/30 03:10:09;;;;;;;;;;;;;;;28.38;36.66;100850.91;5078572;28;1977;-22
2023/09/30 03:12:35;;;;;;;;;;;;;;;28.34;36.67;100849.63;5078864;28;1090;-22
2023/09/30 03:15:04;;;;;;;;;;;;;;;28.29;36.71;100847.47;5078521;28;1131;-21
2023/09/30 03:17:30;;;;;;;;;;;;;;;28.16;36.49;100848.09;5078902;28;1031;-21
2023/09/30 03:19:57;;;;;;;;;;;;;;;28.20;36.02;100845.88;5078037;28;1079;-22
2023/09/30 03:22:22;;;;;;;;;;;;;;;28.28;35.91;100845.78;5078899;28;1058;-21
2023/09/30 03:24:48;;;;;;;;;;;;;;;28.35;35.71;100840.47;5078783;28;1063;-21
2023/09/30 03:27:15;;;;;;;;;;;;;;;28.25;36.01;100843.44;5078221;28;1123;-21
2023/09/30 03:29:40;;;;;;;;;;;;;;;28.29;35.69;100844.75;5078339;28;1906;-21
2023/09/30 03:32:06;;;;;;;;;;;;;;;27.71;32.54;100850.84;5078195;28;1166;-25
2023/09/30 03:34:32;;;;;;;;;;;;;;;27.56;31.37;100842.66;5078339;28;1047;-25
2023/09/30 03:37:00;;;;;;;;;;;;;;;27.27;30.46;100850.50;5078691;28;1047;-23
2023/09/30 03:39:27;;;;;;;;;;;;;;;26.94;29.06;100845.34;5078402;28;1211;-24
2023/09/30 03:41:59;;;;;;;;;;;;;;;26.14;29.67;100838.16;5077871;28;1048;-23
2023/09/30 03:44:24;;;;;;;;;;;;;;;25.86;28.87;100850.16;5077806;28;1149;-24
2023/09/30 03:46:51;;;;;;;;;;;;;;;25.42;30.34;100846.81;5078477;28;1150;-24
2023/09/30 03:49:16;;;;;;;;;;;;;;;25.53;29.63;100842.97;5076957;28;1909;-23
2023/09/30 03:51:42;;;;;;;;;;;;;;;25.04;30.40;100841.13;5077520;28;1015;-24
2023/09/30 03:54:08;;;;;;;;;;;;;;;25.43;29.30;100836.91;5078536;28;1162;-24
2023/09/30 03:56:34;;;;;;;;;;;;;;;25.47;28.52;100838.25;5078157;28;1159;-24
2023/09/30 03:58:59;;;;;;;;;;;;;;;25.81;29.03;100847.16;5077726;28;1066;-25
2023/09/30 04:01:26;;;;;;;;;;;;;;;25.60;28.92;100843.13;5077730;28;1115;-26
2023/09/30 04:03:55;;;;;;;;;;;;;;;25.10;28.78;100847.66;5065565;28;1148;-25
2023/09/30 04:06:20;;;;;;;;;;;;;;;24.94;29.46;100843.97;5077553;28;1155;-22
2023/09/30 04:08:46;;;;;;;;;;;;;;;24.41;29.54;100836.03;5077841;28;1149;-23
2023/09/30 04:11:17;;;;;;;;;;;;;;;23.83;30.52;100845.50;5076447;28;1964;-23
2023/09/30 04:13:44;;;;;;;;;;;;;;;24.96;28.93;100847.31;5062657;28;1027;-25
2023/09/30 04:16:10;;;;;;;;;;;;;;;25.36;28.38;100844.00;5071738;28;1031;-25
2023/09/30 04:18:36;;;;;;;;;;;;;;;25.74;28.19;100844.28;5069869;28;1337;-26
2023/09/30 04:21:02;;;;;;;;;;;;;;;25.97;28.06;100838.19;5067485;28;1058;-25
2023/09/30 04:23:27;;;;;;;;;;;;;;;24.65;29.53;100826.38;5077379;28;1167;-25
2023/09/30 04:25:53;;;;;;;;;;;;;;;24.39;30.23;100833.53;5086307;28;1034;-25
2023/09/30 04:28:21;;;;;;;;;;;;;;;24.24;30.29;100832.47;5076947;28;1121;-30
2023/09/30 04:30:50;;;;;;;;;;;;;;;23.95;30.63;100827.28;5076255;28;1913;-30
2023/09/30 04:33:17;;;;;;;;;;;;;;;23.95;30.58;100826.41;5076645;28;1008;-29
2023/09/30 04:35:43;;;;;;;;;;;;;;;23.70;31.05;100831.66;5076787;28;1171;-29
2023/09/30 04:38:08;;;;;;;;;;;;;;;24.40;30.34;100827.16;5071237;28;1359;-29
2023/09/30 04:40:34;;;;;;;;;;;;;;;24.42;30.16;100835.06;5081161;28;1142;-31
2023/09/30 04:42:59;;;;;;;;;;;;;;;24.46;30.05;100842.63;5054819;28;1032;-31
2023/09/30 04:45:26;;;;;;;;;;;;;;;24.01;30.75;100836.53;5072030;28;2736;-31
2023/09/30 04:47:56;;;;;;;;;;;;;;;24.35;30.55;100848.31;5073485;28;1383;-30
2023/09/30 04:50:21;;;;;;;;;;;;;;;24.51;30.22;100847.53;5072688;28;1991;-31
2023/09/30 04:52:47;;;;;;;;;;;;;;;24.43;30.55;100842.97;5077504;28;1156;-31
2023/09/30 04:55:15;;;;;;;;;;;;;;;24.38;30.39;100839.91;5076410;28;938;-31
2023/09/30 04:57:44;;;;;;;;;;;;;;;23.96;31.27;100841.53;5076133;28;1038;-31
2023/09/30 05:00:10;;;;;;;;;;;;;;;24.25;30.92;100839.53;5075313;28;1711;-30
2023/09/30 05:02:36;;;;;;;;;;;;;;;23.80;31.50;100840.44;5076245;28;1158;-30
2023/09/30 05:05:02;;;;;;;;;;;;;;;23.98;31.53;100847.59;5075827;28;1104;-30
2023/09/30 05:07:28;;;;;;;;;;;;;;;24.22;31.14;100854.13;5075582;28;1209;-27
2023/09/30 05:09:54;;;;;;;;;;;;;;;24.21;30.96;100850.59;5075633;28;1992;-28
2023/09/30 05:12:20;;;;;;;;;;;;;;;24.45;30.83;100858.94;5076236;28;1070;-27
2023/09/30 05:14:45;;;;;;;;;;;;;;;24.61;30.59;100855.44;5071979;28;2328;-30
2023/09/30 05:17:11;;;;;;;;;;;;;;;24.62;30.56;100867.06;5076132;28;1163;-30
2023/09/30 05:19:37;;;;;;;;;;;;;;;24.78;30.46;100863.56;5075630;28;937;-31
2023/09/30 05:22:03;;;;;;;;;;;;;;;24.74;30.72;100854.97;5062159;28;1042;-32
2023/09/30 05:24:29;;;;;;;;;;;;;;;24.84;30.41;100868.28;5074870;28;1222;-27
2023/09/30 05:26:54;;;;;;;;;;;;;;;24.89;30.51;100865.13;5066909;28;1250;-28
2023/09/30 05:29:20;;;;;;;;;;;;;;;24.99;30.13;100867.69;5063883;28;1991;-27
2023/09/30 05:31:46;;;;;;;;;;;;;;;24.74;30.63;100872.97;5075451;28;914;-28
2023/09/30 05:34:11;;;;;;;;;;;;;;;24.61;30.70;100868.06;5075797;28;1055;-28
2023/09/30 05:36:37;;;;;;;;;;;;;;;24.49;31.08;100873.72;5075312;28;1027;-29
2023/09/30 05:39:03;;;;;;;;;;;;;;;25.15;30.50;100870.41;5068532;28;1291;-28
2023/09/30 05:41:29;;;;;;;;;;;;;;;25.41;29.99;100873.94;5071716;28;1107;-28
2023/09/30 05:43:55;;;;;;;;;;;;;;;25.42;29.98;100881.00;5075282;28;2380;-28
2023/09/30 05:46:21;;;;;;;;;;;;;;;24.93;30.59;100874.56;5070189;28;1078;-29
2023/09/30 05:48:46;;;;;;;;;;;;;;;25.08;30.59;100869.38;5067193;28;1113;-27
2023/09/30 05:51:15;;;;;;;;;;;;;;;25.39;30.42;100874.09;5075739;28;1902;-28
2023/09/30 05:53:41;;;;;;;;;;;;;;;26.08;29.27;100881.94;5075604;28;1135;-29
2023/09/30 05:56:07;;;;;;;;;;;;;;;26.40;28.70;100881.03;5072969;28;1051;-28
2023/09/30 05:58:32;;;;;;;;;;;;;;;26.44;28.58;100878.84;5075316;28;1139;-27
2023/09/30 06:00:58;;;;;;;;;;;;;;;26.50;29.13;100880.84;5074452;28;1180;-29
2023/09/30 06:03:23;;;;;;;;;;;;;;;26.90;28.77;100882.63;5063280;28;1127;-27
2023/09/30 06:05:49;;;;;;;;;;;;;;;26.93;29.17;100884.97;5073982;28;1075;-29
2023/09/30 06:08:14;;;;;;;;;;;;;;;26.78;29.44;100887.59;5074938;28;924;-30
2023/09/30 06:10:42;;;;;;;;;;;;;;;27.02;29.40;100888.50;5070191;28;1957;-27
2023/09/30 06:13:08;;;;;;;;;;;;;;;27.23;29.40;100887.00;5070472;28;1321;-28
2023/09/30 06:15:36;;;;;;;;;;;;;;;27.14;29.47;100887.06;5075945;28;2538;-27
2023/09/30 06:18:04;;;;;;;;;;;;;;;27.24;29.76;100892.22;5073895;28;1046;-28
2023/09/30 06:20:30;;;;;;;;;;;;;;;27.32;29.37;100882.38;5072379;28;1299;-28
2023/09/30 06:22:56;;;;;;;;;;;;;;;27.43;29.45;100891.91;5078805;28;1540;-30
2023/09/30 06:25:23;;;;;;;;;;;;;;;27.48;29.91;100886.78;5089362;28;1090;-27
2023/09/30 06:27:49;;;;;;;;;;;;;;;27.42;29.85;100882.13;5081320;28;1102;-27
2023/09/30 06:30:19;;;;;;;;;;;;;;;27.47;29.91;100887.81;5079311;28;1898;-30
2023/09/30 06:32:45;;;;;;;;;;;;;;;27.55;29.71;100889.59;5073026;28;1102;-29
2023/09/30 06:35:10;;;;;;;;;;;;;;;27.54;30.13;100890.66;5066050;28;946;-29
2023/09/30 06:37:37;;;;;;;;;;;;;;;27.54;30.34;100886.09;5079136;28;1111;-29
2023/09/30 06:40:04;;;;;;;;;;;;;;;27.68;30.20;100878.16;5066002;28;957;-28
2023/09/30 06:42:30;;;;;;;;;;;;;;;27.65;29.99;100886.66;5060881;28;1070;-30
2023/09/30 06:44:56;;;;;;;;;;;;;;;27.58;29.93;100881.13;5078465;28;1853;-28
2023/09/30 06:47:22;;;;;;;;;;;;;;;27.56;30.06;100881.31;5078405;28;1122;-28
2023/09/30 06:49:47;;;;;;;;;;;;;;;27.50;29.82;100887.47;5078190;28;1974;-28
2023/09/30 06:52:13;;;;;;;;;;;;;;;27.72;29.89;100891.19;5078982;28;1148;-27
2023/09/30 06:54:38;;;;;;;;;;;;;;;27.68;30.36;100881.75;5078071;28;1131;-29
2023/09/30 06:57:04;;;;;;;;;;;;;;;27.01;30.03;100771.56;5078618;28;1111;-29
2023/09/30 06:59:30;;;;;;;;;;;;;;;27.68;29.91;100879.03;5078918;28;1183;-28
2023/09/30 07:01:55;;;;;;;;;;;;;;;27.62;29.93;100880.59;5060102;28;1319;-29
2023/09/30 07:04:21;;;;;;;;;;;;;;;27.56;30.07;100880.50;5065524;28;1091;-30
2023/09/30 07:06:47;;;;;;;;;;;;;;;27.56;29.72;100886.72;5078153;28;1148;-29
2023/09/30 07:09:12;;;;;;;;;;;;;;;27.55;29.77;100881.50;5071970;28;1046;-28
2023/09/30 07:11:38;;;;;;;;;;;;;;;27.68;29.32;100881.75;5071781;28;2055;-28
2023/09/30 07:14:04;;;;;;;;;;;;;;;27.60;29.37;100893.44;5078310;28;1828;-29
2023/09/30 07:16:30;;;;;;;;;;;;;;;27.76;29.18;100894.34;5078141;28;1128;-28
2023/09/30 07:18:55;;;;;;;;;;;;;;;27.70;29.15;100884.28;5077996;28;1031;-28
2023/09/30 07:21:21;;;;;;;;;;;;;;;27.51;29.37;100884.56;5064521;28;1086;-28
2023/09/30 07:23:47;;;;;;;;;;;;;;;27.59;29.27;100882.81;5058457;28;1146;-29
2023/09/30 07:26:14;;;;;;;;;;;;;;;27.69;28.85;100885.31;5071196;28;1135;-29
2023/09/30 07:28:40;;;;;;;;;;;;;;;27.60;29.00;100879.09;5078088;28;1011;-30
2023/09/30 07:31:05;;;;;;;;;;;;;;;27.73;29.00;100879.34;5077309;28;1986;-28
2023/09/30 07:33:31;;;;;;;;;;;;;;;27.65;28.42;100883.94;5077863;28;1144;-27
2023/09/30 07:35:56;;;;;;;;;;;;;;;27.49;28.62;100880.38;5069165;28;1322;-29
2023/09/30 07:38:22;;;;;;;;;;;;;;;27.57;28.69;100883.00;5077721;28;956;-30
2023/09/30 07:40:48;;;;;;;;;;;;;;;27.81;29.00;100886.53;5077546;28;1134;-28
2023/09/30 07:43:14;;;;;;;;;;;;;;;27.80;28.51;100878.59;5072592;28;971;-29
2023/09/30 07:45:40;;;;;;;;;;;;;;;28.02;27.99;100893.06;5077135;28;2737;-29
2023/09/30 07:48:09;;;;;;;;;;;;;;;27.87;29.03;100888.50;5070489;28;1415;-29
2023/09/30 07:50:35;;;;;;;;;;;;;;;28.05;29.32;100889.16;5070894;28;2019;-27
2023/09/30 07:53:00;;;;;;;;;;;;;;;27.97;29.15;100890.09;5065580;28;1102;-29
2023/09/30 07:55:26;;;;;;;;;;;;;;;28.09;29.41;100893.19;5065547;28;1039;-29
2023/09/30 07:57:51;;;;;;;;;;;;;;;28.11;29.93;100886.53;5077628;28;1066;-28
2023/09/30 08:00:17;;;;;;;;;;;;;;;28.13;29.77;100883.66;5063870;28;1234;-28
2023/09/30 08:02:43;;;;;;;;;;;;;;;28.11;29.46;100889.25;5069760;28;1032;-27
2023/09/30 08:05:09;;;;;;;;;;;;;;;28.06;28.80;100891.66;5071302;28;1086;-27
2023/09/30 08:07:34;;;;;;;;;;;;;;;28.13;29.93;100886.34;5073292;28;1090;-28
2023/09/30 08:10:00;;;;;;;;;;;;;;;28.20;29.86;100890.00;5076986;28;1969;-28
2023/09/30 08:12:25;;;;;;;;;;;;;;;28.10;30.16;100887.56;5077277;28;1059;-28
2023/09/30 08:14:54;;;;;;;;;;;;;;;28.22;30.03;100889.81;5073549;28;1813;-27
2023/09/30 08:17:19;;;;;;;;;;;;;;;28.17;29.52;100893.09;5076777;28;1150;-29
2023/09/30 08:19:47;;;;;;;;;;;;;;;28.14;29.53;100882.63;5076724;28;1019;-26
2023/09/30 08:22:13;;;;;;;;;;;;;;;28.19;29.55;100882.06;5076676;28;1022;-27
2023/09/30 08:24:38;;;;;;;;;;;;;;;28.14;28.54;100892.59;5077324;28;1246;-27
2023/09/30 08:27:05;;;;;;;;;;;;;;;28.02;29.87;100884.13;5076469;28;1225;-26
2023/09/30 08:29:33;;;;;;;;;;;;;;;28.22;29.66;100877.13;5063331;28;1967;-28
2023/09/30 08:31:58;;;;;;;;;;;;;;;28.23;28.91;100880.66;5076223;28;916;-28
2023/09/30 08:34:24;;;;;;;;;;;;;;;28.29;29.59;100885.34;5076749;28;1194;-27
2023/09/30 08:36:49;;;;;;;;;;;;;;;28.04;30.29;100873.97;5076221;28;983;-28
2023/09/30 08:39:15;;;;;;;;;;;;;;;28.28;29.82;100875.53;5076447;28;1119;-27
2023/09/30 08:41:44;;;;;;;;;;;;;;;28.26;29.59;100874.88;5076647;28;1214;-28
2023/09/30 08:44:09;;;;;;;;;;;;;;;28.28;29.79;100877.41;5076149;28;2420;-28
2023/09/30 08:46:34;;;;;;;;;;;;;;;28.34;29.65;100872.09;5076503;28;1016;-28
2023/09/30 08:49:00;;;;;;;;;;;;;;;28.44;29.55;100866.41;5076363;28;1455;-28
2023/09/30 08:51:26;;;;;;;;;;;;;;;28.23;30.28;100869.84;5069076;28;1981;-27
2023/09/30 08:53:52;;;;;;;;;;;;;;;28.33;29.57;100865.00;5056839;28;1039;-29
2023/09/30 08:56:18;;;;;;;;;;;;;;;28.32;29.65;100867.88;5076080;28;1058;-27
2023/09/30 08:58:44;;;;;;;;;;;;;;;28.37;28.63;100865.47;5065709;28;1171;-29
2023/09/30 09:01:09;;;;;;;;;;;;;;;28.57;28.56;100862.19;5050296;28;1417;-29
2023/09/30 09:03:36;;;;;;;;;;;;;;;28.34;28.01;100863.16;5052549;28;1294;-30
2023/09/30 09:06:02;;;;;;;;;;;;;;;28.39;29.01;100868.84;5077032;28;1002;-29
2023/09/30 09:08:27;;;;;;;;;;;;;;;28.35;28.56;100871.09;5076038;28;1090;-30
2023/09/30 09:10:53;;;;;;;;;;;;;;;28.79;26.18;100868.47;5065936;28;1988;-30
2023/09/30 09:13:19;;;;;;;;;;;;;;;28.80;24.68;100870.13;5072755;28;1075;-29
2023/09/30 09:15:44;;;;;;;;;;;;;;;28.84;25.96;100860.59;5075849;28;2648;-30
2023/09/30 09:18:13;;;;;;;;;;;;;;;28.91;25.63;100863.38;5072370;28;1159;-29
2023/09/30 09:20:38;;;;;;;;;;;;;;;28.63;26.94;100858.69;5062855;28;1039;-30
2023/09/30 09:23:05;;;;;;;;;;;;;;;28.55;26.87;100850.69;5057108;28;1113;-29
2023/09/30 09:25:30;;;;;;;;;;;;;;;28.40;27.69;100846.16;5058364;28;1075;-29
2023/09/30 09:27:56;;;;;;;;;;;;;;;28.54;27.48;100849.03;5056756;28;1334;-28
2023/09/30 09:30:22;;;;;;;;;;;;;;;28.70;27.42;100850.66;5071167;28;1991;-29
2023/09/30 09:32:54;;;;;;;;;;;;;;;28.83;27.63;100845.38;5075026;28;1139;-29
2023/09/30 09:35:20;;;;;;;;;;;;;;;29.35;26.20;100844.41;5076053;28;1074;-28
2023/09/30 09:38:04;;;;;;;;;;;;;;;29.43;24.74;100840.72;5075285;28;1090;-28
2023/09/30 09:40:30;;;;;;;;;;;;;;;29.53;24.61;100853.97;5075717;28;1091;-29
2023/09/30 09:42:56;;;;;;;;;;;;;;;29.17;25.90;100845.75;5075455;28;1079;-28
2023/09/30 09:45:23;;;;;;;;;;;;;;;29.28;26.59;100848.97;5075359;28;2173;-28
2023/09/30 09:47:48;;;;;;;;;;;;;;;29.41;26.42;100850.94;5069921;28;1175;-29
2023/09/30 09:50:14;;;;;;;;;;;;;;;29.82;24.43;100850.22;5065935;28;1906;-29
2023/09/30 09:52:39;;;;;;;;;;;;;;;29.85;24.76;100854.38;5074959;28;1067;-30
2023/09/30 09:55:05;;;;;;;;;;;;;;;29.61;25.40;100843.00;5066527;28;1110;-30
2023/09/30 09:57:31;;;;;;;;;;;;;;;29.57;25.68;100844.38;5053299;28;1107;-30
2023/09/30 09:59:57;;;;;;;;;;;;;;;29.20;27.21;100847.22;5072333;28;1213;-30
2023/09/30 10:02:23;;;;;;;;;;;;;;;29.50;26.46;100854.31;5065801;28;1043;-30
2023/09/30 10:04:48;;;;;;;;;;;;;;;29.56;25.44;100846.25;5072067;28;1281;-31
2023/09/30 10:07:14;;;;;;;;;;;;;;;29.68;23.95;100841.16;5065242;28;1067;-30
2023/09/30 10:09:41;;;;;;;;;;;;;;;29.06;25.52;100838.16;5053490;28;1975;-29
2023/09/30 10:12:08;;;;;;;;;;;;;;;29.05;26.82;100825.63;5047152;28;1074;-27
2023/09/30 10:14:35;;;;;;;;;;;;;;;29.08;26.50;100822.50;5072073;28;1884;-31
2023/09/30 10:17:01;;;;;;;;;;;;;;;29.17;26.49;100813.25;5074112;28;1095;-31
2023/09/30 10:19:29;;;;;;;;;;;;;;;29.32;26.17;100821.28;5071428;28;1155;-31
2023/09/30 10:22:25;;;;;;;;;;;;;;;28.85;26.70;100818.97;5074660;28;1055;-31
2023/09/30 10:24:52;;;;;;;;;;;;;;;28.73;28.29;100813.22;5056162;28;1093;-31
2023/09/30 10:27:24;;;;;;;;;;;;;;;28.83;28.24;100821.03;5074958;28;1060;-32
2023/09/30 10:30:02;;;;;;;;;;;;;;;29.03;27.22;100820.41;5074787;28;2250;-31
2023/09/30 10:32:46;;;;;;;;;;;;;;;29.01;27.20;100811.63;5065642;28;1167;-31
2023/09/30 10:35:12;;;;;;;;;;;;;;;28.93;26.54;100818.00;5061799;28;1027;-29
2023/09/30 10:37:38;;;;;;;;;;;;;;;28.99;27.38;100811.00;5075272;28;1055;-27
2023/09/30 10:40:04;;;;;;;;;;;;;;;29.02;27.49;100813.31;5055044;28;1161;-27
2023/09/30 10:42:52;;;;;;;;;;;;;;;29.24;26.54;100824.13;5067949;28;1175;-28
2023/09/30 10:45:36;;;;;;;;;;;;;;;29.15;27.25;100809.88;5068519;28;2648;-27
2023/09/30 10:48:20;;;;;;;;;;;;;;;29.04;28.01;100815.81;5075011;28;1106;-29
2023/09/30 10:50:50;;;;;;;;;;;;;;;29.04;27.51;100813.13;5074809;28;1903;-28
2023/09/30 10:53:15;;;;;;;;;;;;;;;29.07;27.58;100819.00;5074741;28;1112;-30
2023/09/30 10:55:42;;;;;;;;;;;;;;;29.50;26.96;100819.09;5057027;28;1229;-27
2023/09/30 10:58:08;;;;;;;;;;;;;;;29.29;27.44;100804.56;5057427;28;897;-30
2023/09/30 11:00:34;;;;;;;;;;;;;;;29.28;27.26;100800.19;5078302;28;1182;-28
2023/09/30 11:03:00;;;;;;;;;;;;;;;29.53;26.71;100807.88;5077997;28;1062;-29
2023/09/30 11:05:25;;;;;;;;;;;;;;;29.66;26.74;100804.44;5075416;28;1019;-28
2023/09/30 11:07:51;;;;;;;;;;;;;;;29.49;26.95;100801.16;5068230;28;976;-28
2023/09/30 11:10:17;;;;;;;;;;;;;;;29.25;27.79;100803.28;5077559;28;1972;-28
2023/09/30 11:12:58;;;;;;;;;;;;;;;28.96;28.09;100800.53;5078376;28;1257;-27
2023/09/30 11:15:24;;;;;;;;;;;;;;;29.04;27.85;100800.44;5078552;28;2354;-28
2023/09/30 11:17:50;;;;;;;;;;;;;;;28.98;28.33;100805.78;5078188;28;1147;-29
2023/09/30 11:20:18;;;;;;;;;;;;;;;28.84;27.98;100792.91;5071725;28;1032;-28
2023/09/30 11:22:47;;;;;;;;;;;;;;;28.82;29.13;100797.69;5067778;28;1345;-27
2023/09/30 11:25:19;;;;;;;;;;;;;;;29.06;28.58;100790.22;5067000;28;1166;-27
2023/09/30 11:27:44;;;;;;;;;;;;;;;28.83;29.01;100782.25;5077817;28;1137;-28
2023/09/30 11:30:10;;;;;;;;;;;;;;;28.87;28.98;100786.28;5064882;28;1910;-27
2023/09/30 11:32:36;;;;;;;;;;;;;;;28.86;29.02;100787.31;5070454;28;995;-27
2023/09/30 11:35:01;;;;;;;;;;;;;;;28.86;29.11;100798.16;5059235;28;1151;-27
2023/09/30 11:37:31;;;;;;;;;;;;;;;28.94;28.70;100789.91;5077302;28;1293;-28
2023/09/30 11:40:08;;;;;;;;;;;;;;;28.97;28.67;100780.56;5074519;28;1347;-27
2023/09/30 11:42:33;;;;;;;;;;;;;;;28.90;29.14;100785.88;5076396;28;1098;-25
2023/09/30 11:44:59;;;;;;;;;;;;;;;28.95;29.01;100777.16;5062579;28;2575;-26
2023/09/30 11:47:35;;;;;;;;;;;;;;;29.00;28.26;100779.31;5064323;28;1070;-26
2023/09/30 11:50:00;;;;;;;;;;;;;;;28.84;28.07;100778.56;5077646;28;1906;-26
2023/09/30 11:52:26;;;;;;;;;;;;;;;28.67;28.57;100775.25;5077537;28;1070;-28
2023/09/30 11:54:53;;;;;;;;;;;;;;;28.78;29.09;100766.63;5076997;28;1050;-27
2023/09/30 11:57:18;;;;;;;;;;;;;;;28.73;29.54;100767.19;5075050;28;1146;-27
2023/09/30 11:59:45;;;;;;;;;;;;;;;28.81;29.12;100763.50;5057577;28;1055;-28
2023/09/30 12:02:10;;;;;;;;;;;;;;;28.66;29.10;100765.47;5033620;28;1080;-27
2023/09/30 12:04:36;;;;;;;;;;;;;;;28.56;29.16;100761.19;5037589;28;1007;-28
2023/09/30 12:07:02;;;;;;;;;;;;;;;28.67;29.28;100761.72;5037300;28;1024;-27
2023/09/30 12:09:28;;;;;;;;;;;;;;;28.67;29.15;100764.44;5036627;28;1894;-26
2023/09/30 12:11:54;;;;;;;;;;;;;;;28.71;29.25;100758.44;5036975;28;1199;-28
2023/09/30 12:14:20;;;;;;;;;;;;;;;28.60;29.39;100761.66;5036891;28;1818;-27
2023/09/30 12:16:47;;;;;;;;;;;;;;;28.63;29.44;100755.84;5037115;28;1074;-27
2023/09/30 12:19:22;;;;;;;;;;;;;;;28.70;29.17;100755.91;5037157;28;1008;-28
2023/09/30 12:21:48;;;;;;;;;;;;;;;28.70;29.61;100761.34;5036692;28;1087;-25
2023/09/30 12:24:16;;;;;;;;;;;;;;;28.79;29.60;100754.78;5037108;28;1052;-28
2023/09/30 12:26:47;;;;;;;;;;;;;;;28.77;29.46;100747.84;5036902;28;1106;-29
2023/09/30 12:29:17;;;;;;;;;;;;;;;28.84;29.22;100752.28;5037568;28;1073;-28
2023/09/30 12:31:43;;;;;;;;;;;;;;;29.02;28.71;100750.19;5036375;28;1979;-27
2023/09/30 12:34:08;;;;;;;;;;;;;;;28.76;28.85;100741.59;5036732;28;1104;-28
2023/09/30 12:36:34;;;;;;;;;;;;;;;28.84;28.80;100748.78;5036768;28;1167;-29
2023/09/30 12:39:00;;;;;;;;;;;;;;;28.64;29.72;100746.72;5036468;28;1063;-28
2023/09/30 12:41:25;;;;;;;;;;;;;;;28.83;29.18;100730.81;5036360;28;1163;-27
2023/09/30 12:43:51;;;;;;;;;;;;;;;28.71;29.66;100717.81;5036684;28;1930;-29
2023/09/30 12:46:18;;;;;;;;;;;;;;;28.79;29.38;100741.25;5036579;28;1117;-29